• Join FlightAware (Why Join?)
  • Login
  • US Flag 
 
05:10PM EST


 

Airport Tracker/Info


-or-


 

Live Flight TrackerFlight Track Log ✈ SWA920 ✈ 28-Apr-2013 ✈ KBNA - KCHS

Flight Track Log - Related Links

Times and Time Zones

All times are in EDT time to prevent confusion due to time zone crossing. See the SWA920 flight status page for this flight to view local times or setup timezone preferences in your user account.

Time Position Orientation Groundspeed Altitude Reporting Facility
EDT Latitude Longitude Course Direction KTS MPH feet Rate Location/Type
05:52PM 36.0833 -86.6667 141° Southeast 184 212 2,300  Level Nashville TRACON
05:53PM 36.0667 -86.6000 107° East 253 291 4,400 2,820 Climbing Nashville TRACON
05:54PM 36.0731 -86.4819 86° East 290 334 8,100 3,180 Climbing Memphis Center
05:55PM 36.0717 -86.3717 91° East 338 389 11,000 3,000 Climbing Memphis Center
05:56PM 36.0717 -86.2508 90° East 408 470 14,100 2,460 Climbing Memphis Center
05:57PM 36.0694 -86.1200 91° East 401 461 15,900 2,340 Climbing Memphis Center
05:59PM 36.0572 -85.8622 93° East 396 456 21,200 2,580 Climbing Atlanta Center
06:00PM 36.0428 -85.7003 96° East 415 478 23,700 2,100 Climbing Atlanta Center
06:01PM 36.0325 -85.5383 94° East 442 509 25,400 1,620 Climbing Atlanta Center
06:02PM 36.0197 -85.3789 96° East 463 533 27,000 1,380 Climbing Atlanta Center
06:03PM 36.0089 -85.2169 95° East 463 533 28,200 1,500 Climbing Atlanta Center
06:04PM 35.9622 -85.0753 112° Southeast 446 513 30,000 1,500 Climbing Atlanta Center
06:05PM 35.8817 -84.9717 134° Southeast 431 496 31,300 1,500 Climbing Atlanta Center
06:06PM 35.7947 -84.8556 133° Southeast 454 522 33,000 1,680 Climbing Atlanta Center
06:07PM 35.7100 -84.7419 133° Southeast 454 522 34,700 1,500 Climbing Atlanta Center
06:08PM 35.6231 -84.6264 133° Southeast 454 522 36,000 1,320 Climbing Atlanta Center
06:09PM 35.5400 -84.5136 132° Southeast 449 517 37,400 1,260 Climbing Atlanta Center
06:10PM 35.4508 -84.3983 133° Southeast 449 517 38,600 780 Climbing Atlanta Center
06:11PM 35.3633 -84.2808 132° Southeast 449 517 39,000 180 Climbing Atlanta Center
06:12PM 35.2989 -84.1406 119° Southeast 465 535 39,000  Level Atlanta Center
06:13PM 35.2447 -83.9853 113° Southeast 472 543 39,000  Level Atlanta Center
06:14PM 35.1922 -83.8331 113° Southeast 479 551 39,000  Level Atlanta Center
06:15PM 35.1378 -83.6833 114° Southeast 484 557 39,000  Level Atlanta Center
06:16PM 35.0850 -83.5311 113° Southeast 484 557 39,000  Level Atlanta Center
06:17PM 35.0322 -83.3792 113° Southeast 484 557 39,000  Level Atlanta Center
06:18PM 34.9769 -83.2300 114° Southeast 479 551 39,000  Level Atlanta Center
06:19PM 34.9153 -83.0636 114° Southeast 479 551 39,000  Level Atlanta Center
06:20PM 34.8597 -82.9097 114° Southeast 492 566 39,000  Level Atlanta Center
06:21PM 34.8125 -82.7839 115° Southeast 482 555 39,000 -300 Level Atlanta Center
06:22PM 34.7589 -82.6331 113° Southeast 476 548 38,500 -780 Descending Atlanta Center
06:23PM 34.7028 -82.4825 114° Southeast 481 554 37,500 -960 Descending Atlanta Center
06:24PM 34.6486 -82.3319 114° Southeast 481 554 36,600 -960 Descending Atlanta Center
06:25PM 34.5919 -82.1817 115° Southeast 481 554 35,600 -1,020 Descending Atlanta Center
06:26PM 34.5356 -82.0317 114° Southeast 481 554 34,600 -1,020 Descending Atlanta Center
06:27PM 34.4786 -81.8792 114° Southeast 486 559 33,600 -1,680 Descending Atlanta Center
06:29PM 34.3808 -81.6144 114° Southeast 486 559 30,000 -2,100 Descending Jacksonville Center
06:30PM 34.3292 -81.4744 114° Southeast 472 543 27,900 -1,800 Descending Jacksonville Center
06:31PM 34.2572 -81.3825 133° Southeast 455 524 26,400 -1,260 Descending Jacksonville Center
06:32PM 34.1606 -81.3167 151° Southeast 409 471 25,400 -1,020 Descending Jacksonville Center
06:33PM 34.0678 -81.2481 149° Southeast 403 464 24,400 -1,020 Descending Jacksonville Center
06:34PM 33.9750 -81.1822 150° Southeast 396 456 23,400 -960 Descending Jacksonville Center
06:35PM 33.8803 -81.1164 150° Southeast 384 442 22,500 -960 Descending Jacksonville Center
06:36PM 33.7856 -81.0533 151° Southeast 384 442 21,500 -1,080 Descending Jacksonville Center
06:37PM 33.6842 -80.9806 149° Southeast 384 442 20,400 -1,200 Descending Jacksonville Center
06:38PM 33.5894 -80.9178 151° Southeast 384 442 19,200 -1,560 Descending Jacksonville Center
06:39PM 33.5028 -80.8600 151° Southeast 379 436 17,300 -1,980 Descending Jacksonville Center
06:40PM 33.4183 -80.7997 149° Southeast 373 429 15,300 -2,040 Descending Jacksonville Center
06:41PM 33.3319 -80.7422 151° Southeast 357 411 13,300 -2,040 Descending Jacksonville Center
06:42PM 33.2494 -80.6869 151° Southeast 347 399 11,300 -1,560 Descending Jacksonville Center
06:43PM 33.2019 -80.5914 121° Southeast 323 372 10,200 -1,080 Descending Jacksonville Center
06:44PM 33.1750 -80.4953 108° East 308 354 9,200 -1,200 Descending Jacksonville Center
06:45PM 33.1483 -80.4042 109° East 296 341 7,800 -1,380 Descending Jacksonville Center
06:46PM 33.1214 -80.3206 111° Southeast 277 319 6,500 -1,380 Descending Jacksonville Center
06:47PM 33.0989 -80.2394 108° East 271 312 5,100 -1,440 Descending Jacksonville Center
06:48PM 33.0742 -80.1558 109° East 266 306 3,700 -900 Descending Jacksonville Center
06:49PM 33.0561 -80.0969 110° East 246 283 3,400 -720 Descending Jacksonville Center
06:50PM 33.0381 -80.0356 109° East 217 250 2,300 -1,140 Descending Jacksonville Center
06:52PM 32.8986 -80.0405 221° Southwest  Level Estimated
06:59PM 32.8986 -80.0405 79° East  Level Estimated
07:00PM 32.8986 -80.0405 79° East  Level Estimated
07:01PM 32.8986 -80.0405 79° East  Level Estimated
07:02PM 32.8986 -80.0405 79° East  Level Estimated
07:03PM 32.8986 -80.0405 79° East  Level Estimated